createdAt,value
2022-10-15T00:01:32.326Z,2.43
2022-10-15T00:04:02.653Z,2.30
2022-10-15T00:06:31.113Z,2.03
2022-10-15T00:08:59.560Z,2.33
2022-10-15T00:11:29.403Z,2.70
2022-10-15T00:14:00.297Z,2.60
2022-10-15T00:16:30.817Z,2.70
2022-10-15T00:19:00.940Z,2.70
2022-10-15T00:21:29.359Z,2.43
2022-10-15T00:23:57.745Z,2.40
2022-10-15T00:26:28.153Z,2.30
2022-10-15T00:28:59.169Z,2.97
2022-10-15T00:31:30.767Z,2.40
2022-10-15T00:34:02.141Z,2.57
2022-10-15T00:36:32.699Z,2.70
2022-10-15T00:39:01.537Z,2.27
2022-10-15T00:41:31.530Z,2.50
2022-10-15T00:44:01.706Z,2.37
2022-10-15T00:46:36.279Z,2.80
2022-10-15T00:49:16.835Z,2.77
2022-10-15T00:51:49.747Z,2.63
2022-10-15T00:54:18.177Z,2.60
2022-10-15T00:56:48.128Z,2.70
2022-10-15T00:59:18.928Z,2.60
2022-10-15T01:01:48.624Z,2.23
2022-10-15T01:04:18.923Z,2.47
2022-10-15T01:06:47.580Z,1.93
2022-10-15T01:09:16.178Z,2.47
2022-10-15T01:11:48.157Z,2.17
2022-10-15T01:14:33.796Z,2.40
2022-10-15T01:17:09.187Z,2.27
2022-10-15T01:19:58.775Z,2.33
2022-10-15T01:22:38.419Z,2.20
2022-10-15T01:25:22.604Z,2.40
2022-10-15T01:27:56.142Z,2.40
2022-10-15T01:30:30.421Z,2.40
2022-10-15T01:33:16.415Z,1.97
2022-10-15T01:35:51.235Z,2.40
2022-10-15T01:38:36.852Z,2.40
2022-10-15T01:41:11.116Z,2.00
2022-10-15T01:43:46.920Z,2.50
2022-10-15T01:46:21.971Z,2.37
2022-10-15T01:48:53.946Z,2.30
2022-10-15T01:51:24.403Z,2.40
2022-10-15T01:53:54.399Z,2.40
2022-10-15T01:56:25.001Z,2.13
2022-10-15T01:58:56.916Z,2.00
2022-10-15T02:01:26.688Z,1.80
2022-10-15T02:03:55.056Z,1.77
2022-10-15T02:06:28.252Z,1.70
2022-10-15T02:09:08.945Z,2.00
2022-10-15T02:11:46.369Z,2.23
2022-10-15T02:14:21.500Z,2.30
2022-10-15T02:16:57.501Z,2.00
2022-10-15T02:19:33.737Z,1.80
2022-10-15T02:22:07.702Z,1.93
2022-10-15T02:24:40.966Z,2.10
2022-10-15T02:27:10.996Z,1.80
2022-10-15T02:29:42.400Z,1.87
2022-10-15T02:32:16.481Z,1.57
2022-10-15T02:34:47.239Z,1.20
2022-10-15T02:37:18.483Z,1.50
2022-10-15T02:39:47.214Z,1.97
2022-10-15T02:42:17.245Z,1.67
2022-10-15T02:44:45.791Z,1.90
2022-10-15T02:47:15.987Z,2.10
2022-10-15T02:49:44.371Z,1.83
2022-10-15T02:52:12.904Z,2.10
2022-10-15T02:54:41.264Z,2.00
2022-10-15T02:57:09.656Z,2.03
2022-10-15T02:59:38.331Z,2.03
2022-10-15T03:02:06.669Z,2.10
2022-10-15T03:04:36.400Z,2.00
2022-10-15T03:07:04.948Z,2.00
2022-10-15T03:09:33.329Z,1.90
2022-10-15T03:12:01.878Z,2.10
2022-10-15T03:17:04.104Z,2.07
2022-10-15T03:19:32.651Z,1.80
2022-10-15T03:22:02.353Z,1.70
2022-10-15T03:24:30.715Z,1.83
2022-10-15T03:26:59.011Z,1.90
2022-10-15T03:29:27.435Z,1.77
2022-10-15T03:31:55.675Z,2.10
2022-10-15T03:34:24.103Z,1.80
2022-10-15T03:36:52.519Z,1.70
2022-10-15T03:39:22.203Z,1.60
2022-10-15T03:41:53.280Z,2.10
2022-10-15T03:44:22.168Z,1.73
2022-10-15T03:46:50.533Z,1.70
2022-10-15T03:49:18.851Z,1.90
2022-10-15T03:51:47.159Z,1.57
2022-10-15T03:54:15.957Z,1.70
2022-10-15T03:56:45.687Z,1.57
2022-10-15T03:59:14.011Z,1.90
2022-10-15T04:01:42.395Z,1.70
2022-10-15T04:04:12.219Z,1.60
2022-10-15T04:06:40.655Z,2.00
2022-10-15T04:09:09.037Z,1.50
2022-10-15T04:11:37.464Z,1.60
2022-10-15T04:14:08.120Z,1.70
2022-10-15T04:16:36.968Z,1.50
2022-10-15T04:19:07.366Z,1.77
2022-10-15T04:21:38.628Z,1.50
2022-10-15T04:24:07.184Z,1.57
2022-10-15T04:26:35.722Z,1.67
2022-10-15T04:29:04.177Z,1.37
2022-10-15T04:31:34.144Z,1.50
2022-10-15T04:34:02.512Z,1.73
2022-10-15T04:36:30.820Z,1.87
2022-10-15T04:38:59.246Z,1.40
2022-10-15T04:41:27.679Z,1.53
2022-10-15T04:43:56.052Z,1.80
2022-10-15T04:46:24.500Z,1.50
2022-10-15T04:48:57.733Z,1.40
2022-10-15T04:51:27.496Z,1.30
2022-10-15T04:53:56.275Z,1.50
2022-10-15T04:56:25.752Z,1.37
2022-10-15T04:58:54.108Z,1.20
2022-10-15T05:01:22.924Z,1.53
2022-10-15T05:03:51.263Z,1.50
2022-10-15T05:06:22.542Z,1.50
2022-10-15T05:08:51.247Z,1.50
2022-10-15T05:11:21.241Z,1.43
2022-10-15T05:13:50.390Z,1.47
2022-10-15T05:16:21.303Z,1.47
2022-10-15T05:18:51.483Z,1.43
2022-10-15T05:21:21.222Z,2.10
2022-10-15T05:23:50.283Z,1.80
2022-10-15T05:26:22.031Z,2.03
2022-10-15T05:28:51.641Z,1.40
2022-10-15T05:31:22.057Z,1.70
2022-10-15T05:33:52.160Z,1.97
2022-10-15T05:36:24.831Z,1.63
2022-10-15T05:38:54.774Z,1.40
2022-10-15T05:41:24.835Z,1.50
2022-10-15T05:43:55.208Z,1.47
2022-10-15T05:46:24.312Z,1.43
2022-10-15T05:48:53.707Z,1.30
2022-10-15T05:51:24.576Z,1.40
2022-10-15T05:53:54.030Z,1.30
2022-10-15T05:56:23.016Z,1.20
2022-10-15T05:58:51.631Z,1.23
2022-10-15T06:01:20.787Z,1.60
2022-10-15T06:03:49.171Z,1.40
2022-10-15T06:06:19.965Z,1.63
2022-10-15T06:08:50.471Z,1.17
2022-10-15T06:11:18.973Z,1.50
2022-10-15T06:13:47.943Z,1.40
2022-10-15T06:16:21.011Z,1.30
2022-10-15T06:18:53.143Z,1.50
2022-10-15T06:21:21.677Z,1.50
2022-10-15T06:23:51.414Z,1.50
2022-10-15T06:26:19.780Z,1.17
2022-10-15T06:28:48.339Z,1.57
2022-10-15T06:31:16.817Z,1.70
2022-10-15T06:33:45.101Z,1.50
2022-10-15T06:36:14.687Z,1.57
2022-10-15T06:38:44.723Z,1.50
2022-10-15T06:41:14.504Z,1.40
2022-10-15T06:43:42.920Z,1.37
2022-10-15T06:46:11.358Z,1.60
2022-10-15T06:48:39.686Z,1.10
2022-10-15T06:51:08.045Z,1.03
2022-10-15T06:53:37.182Z,1.40
2022-10-15T06:56:06.011Z,1.43
2022-10-15T06:58:35.932Z,1.67
2022-10-15T07:01:06.812Z,1.17
2022-10-15T07:03:36.104Z,1.23
2022-10-15T07:06:06.053Z,1.50
2022-10-15T07:08:34.861Z,1.53
2022-10-15T07:11:04.115Z,1.53
2022-10-15T07:13:32.929Z,1.53
2022-10-15T07:16:06.306Z,1.60
2022-10-15T07:18:35.520Z,1.20
2022-10-15T07:21:04.312Z,1.30
2022-10-15T07:23:33.044Z,1.20
2022-10-15T07:26:02.149Z,1.30
2022-10-15T07:28:30.665Z,1.03
2022-10-15T07:31:02.251Z,1.00
2022-10-15T07:33:34.311Z,1.30
2022-10-15T07:36:05.706Z,0.90
2022-10-15T07:38:34.147Z,1.20
2022-10-15T07:41:03.651Z,10.23
2022-10-15T07:43:31.948Z,3.80
2022-10-15T07:46:00.340Z,1.57
2022-10-15T07:48:28.632Z,1.33
2022-10-15T07:51:00.125Z,1.60
2022-10-15T07:53:28.813Z,1.50
2022-10-15T07:56:00.882Z,1.40
2022-10-15T07:58:30.585Z,2.70
2022-10-15T08:01:02.349Z,1.63
2022-10-15T08:03:31.423Z,1.50
2022-10-15T08:06:03.691Z,1.27
2022-10-15T08:08:32.704Z,1.20
2022-10-15T08:11:06.625Z,1.37
2022-10-15T08:13:35.059Z,1.23
2022-10-15T08:16:03.468Z,1.30
2022-10-15T08:18:31.859Z,1.27
2022-10-15T08:21:02.167Z,1.13
2022-10-15T08:23:30.564Z,0.83
2022-10-15T08:26:00.506Z,1.03
2022-10-15T08:28:29.215Z,0.97
2022-10-15T08:31:02.752Z,1.00
2022-10-15T08:33:33.892Z,1.10
2022-10-15T08:36:05.180Z,1.23
2022-10-15T08:38:33.871Z,0.90
2022-10-15T08:41:03.844Z,1.17
2022-10-15T08:43:37.321Z,2.23
2022-10-15T08:46:10.854Z,1.47
2022-10-15T08:48:42.711Z,1.30
2022-10-15T08:51:15.868Z,1.40
2022-10-15T08:53:48.297Z,1.30
2022-10-15T08:56:20.743Z,1.40
2022-10-15T08:58:57.594Z,1.20
2022-10-15T09:01:33.263Z,1.30
2022-10-15T09:04:14.192Z,1.33
2022-10-15T09:06:44.379Z,1.33
2022-10-15T09:09:20.899Z,1.50
2022-10-15T09:11:59.020Z,1.03
2022-10-15T09:14:31.163Z,1.40
2022-10-15T09:17:02.847Z,1.43
2022-10-15T09:19:35.622Z,0.97
2022-10-15T09:22:06.795Z,0.80
2022-10-15T09:24:35.319Z,0.50
2022-10-15T09:27:10.977Z,0.50
2022-10-15T09:29:46.546Z,0.30
2022-10-15T09:32:22.495Z,0.30
2022-10-15T09:35:00.337Z,0.20
2022-10-15T09:37:35.075Z,0.43
2022-10-15T09:40:29.120Z,0.60
2022-10-15T09:42:59.892Z,0.40
2022-10-15T09:45:28.568Z,0.80
2022-10-15T09:48:00.177Z,1.80
2022-10-15T09:50:40.381Z,0.40
2022-10-15T09:53:19.036Z,0.40
2022-10-15T09:55:53.743Z,0.20
2022-10-15T09:58:26.403Z,0.10
2022-10-15T10:00:58.106Z,0.40
2022-10-15T10:03:29.200Z,0.23
2022-10-15T10:06:02.884Z,0.67
2022-10-15T10:08:36.646Z,0.20
2022-10-15T10:11:07.720Z,0.40
2022-10-15T10:13:41.696Z,0.30
2022-10-15T10:16:11.616Z,0.33
2022-10-15T10:18:40.379Z,0.30
2022-10-15T10:21:23.134Z,0.20
2022-10-15T10:23:52.912Z,0.60
2022-10-15T10:26:21.900Z,0.23
2022-10-15T10:28:57.073Z,1.30
2022-10-15T10:31:40.065Z,1.60
2022-10-15T10:34:13.223Z,1.30
2022-10-15T10:36:44.068Z,2.60
2022-10-15T10:39:24.984Z,1.33
2022-10-15T10:41:55.387Z,1.10
2022-10-15T10:44:29.019Z,1.40
2022-10-15T10:47:10.260Z,1.20
2022-10-15T10:49:40.339Z,1.40
2022-10-15T10:52:20.728Z,1.40
2022-10-15T10:54:56.369Z,1.40
2022-10-15T10:57:33.592Z,1.30
2022-10-15T11:00:05.432Z,1.10
2022-10-15T11:02:35.927Z,1.13
2022-10-15T11:05:04.455Z,1.43
2022-10-15T11:07:42.649Z,1.63
2022-10-15T11:10:20.018Z,1.20
2022-10-15T11:13:04.937Z,0.80
2022-10-15T11:15:43.919Z,1.03
2022-10-15T11:18:34.767Z,1.93
2022-10-15T11:21:12.232Z,1.37
2022-10-15T11:23:58.531Z,1.20
2022-10-15T11:26:58.705Z,1.20
2022-10-15T11:29:37.522Z,1.10
2022-10-15T11:32:18.038Z,1.10
2022-10-15T11:35:01.872Z,1.27
2022-10-15T11:37:43.548Z,1.03
2022-10-15T11:40:21.335Z,1.20
2022-10-15T11:42:58.356Z,1.40
2022-10-15T11:45:48.844Z,1.07
2022-10-15T11:48:23.431Z,1.40
2022-10-15T11:50:58.789Z,1.23
2022-10-15T11:53:54.931Z,1.30
2022-10-15T11:56:27.613Z,1.70
2022-10-15T11:59:01.547Z,1.20
2022-10-15T12:01:38.504Z,1.27
2022-10-15T12:04:13.007Z,1.17
2022-10-15T12:06:48.835Z,1.60
2022-10-15T12:09:29.846Z,1.30
2022-10-15T12:12:04.741Z,1.47
2022-10-15T12:14:40.866Z,1.10
2022-10-15T12:17:17.715Z,1.17
2022-10-15T12:19:52.223Z,1.77
2022-10-15T12:22:34.829Z,1.20
2022-10-15T12:25:03.422Z,1.50
2022-10-15T12:27:38.277Z,1.13
2022-10-15T12:30:22.720Z,1.27
2022-10-15T12:32:51.556Z,1.20
2022-10-15T12:35:24.161Z,1.00
2022-10-15T12:37:52.983Z,1.20
2022-10-15T12:40:30.238Z,1.30
2022-10-15T12:43:01.521Z,1.20
2022-10-15T12:45:39.241Z,0.70
2022-10-15T12:48:23.391Z,0.87
2022-10-15T12:51:11.843Z,0.50
2022-10-15T12:53:43.285Z,0.90
2022-10-15T12:56:23.714Z,0.40
2022-10-15T12:58:54.545Z,0.30
2022-10-15T13:01:31.457Z,0.50
2022-10-15T13:04:02.203Z,0.57
2022-10-15T13:06:35.955Z,0.30
2022-10-15T13:09:19.151Z,0.30
2022-10-15T13:14:30.458Z,0.30
2022-10-15T13:17:03.484Z,0.40
2022-10-15T13:19:36.309Z,0.50
2022-10-15T13:22:07.256Z,0.80
2022-10-15T13:24:45.527Z,0.50
2022-10-15T13:27:22.604Z,0.30
2022-10-15T13:30:02.213Z,0.90
2022-10-15T13:32:34.882Z,0.50
2022-10-15T13:35:11.335Z,0.53
2022-10-15T13:37:42.086Z,1.00
2022-10-15T13:40:21.607Z,0.40
2022-10-15T13:43:03.021Z,1.20
2022-10-15T13:45:31.904Z,1.20
2022-10-15T13:48:01.899Z,1.00
2022-10-15T13:50:31.552Z,1.50
2022-10-15T13:53:05.008Z,1.50
2022-10-15T13:55:38.368Z,1.33
2022-10-15T13:58:18.916Z,1.10
2022-10-15T14:00:52.983Z,0.90
2022-10-15T14:03:25.654Z,0.83
2022-10-15T14:05:55.503Z,0.93
2022-10-15T14:08:29.303Z,0.87
2022-10-15T14:11:00.347Z,1.00
2022-10-15T14:13:29.250Z,1.17
2022-10-15T14:16:14.954Z,1.20
2022-10-15T14:18:49.265Z,1.10
2022-10-15T14:21:19.873Z,1.10
2022-10-15T14:23:49.705Z,1.30
2022-10-15T14:26:25.153Z,1.00
2022-10-15T14:28:55.899Z,1.00
2022-10-15T14:31:34.111Z,1.00
2022-10-15T14:34:04.064Z,1.00
2022-10-15T14:36:41.707Z,0.83
2022-10-15T14:39:28.059Z,1.50
2022-10-15T14:41:58.539Z,1.17
2022-10-15T14:44:27.059Z,1.30
2022-10-15T14:47:03.377Z,1.20
2022-10-15T14:49:35.826Z,1.10
2022-10-15T14:52:07.920Z,1.77
2022-10-15T14:54:39.357Z,1.03
2022-10-15T14:57:18.831Z,1.57
2022-10-15T14:59:47.699Z,1.50
2022-10-15T15:02:18.693Z,1.47
2022-10-15T15:05:05.423Z,1.60
2022-10-15T15:07:33.888Z,1.60
2022-10-15T15:10:02.213Z,1.40
2022-10-15T15:12:31.477Z,1.57
2022-10-15T15:15:00.309Z,1.57
2022-10-15T15:17:30.687Z,1.77
2022-10-15T15:20:00.460Z,2.13
2022-10-15T15:22:31.963Z,2.20
2022-10-15T15:25:02.974Z,2.00
2022-10-15T15:27:37.230Z,1.80
2022-10-15T15:30:08.954Z,1.80
2022-10-15T15:32:37.319Z,1.73
2022-10-15T15:35:20.211Z,1.70
2022-10-15T15:37:48.628Z,1.60
2022-10-15T15:40:17.210Z,1.60
2022-10-15T15:42:46.279Z,2.00
2022-10-15T15:45:20.431Z,1.60
2022-10-15T15:47:49.160Z,1.63
2022-10-15T15:50:20.848Z,1.40
2022-10-15T15:52:49.432Z,1.67
2022-10-15T15:55:18.776Z,1.30
2022-10-15T15:57:47.188Z,1.30
2022-10-15T16:00:17.136Z,1.40
2022-10-15T16:02:46.167Z,1.97
2022-10-15T16:05:16.127Z,2.17
2022-10-15T16:07:46.164Z,2.60
2022-10-15T16:10:14.587Z,2.63
2022-10-15T16:12:44.115Z,1.87
2022-10-15T16:15:14.735Z,3.17
2022-10-15T16:17:44.184Z,3.43
2022-10-15T16:20:13.438Z,4.33
2022-10-15T16:22:42.758Z,6.20
2022-10-15T16:25:12.659Z,4.13
2022-10-15T16:27:41.892Z,4.07
2022-10-15T16:30:11.811Z,3.70
2022-10-15T16:32:40.170Z,5.20
2022-10-15T16:35:09.468Z,4.67
2022-10-15T16:37:37.741Z,4.53
2022-10-15T16:40:07.879Z,5.00
2022-10-15T16:42:37.621Z,3.77
2022-10-15T16:45:06.687Z,2.43
2022-10-15T16:47:35.184Z,1.90
2022-10-15T16:50:03.543Z,1.53
2022-10-15T16:52:32.240Z,2.00
2022-10-15T16:55:00.620Z,1.70
2022-10-15T16:57:28.952Z,1.83
2022-10-15T16:59:58.707Z,1.50
2022-10-15T17:02:27.394Z,1.50
2022-10-15T17:04:55.935Z,1.47
2022-10-15T17:07:24.629Z,1.57
2022-10-15T17:09:53.164Z,1.63
2022-10-15T17:12:21.531Z,1.77
2022-10-15T17:14:51.851Z,1.40
2022-10-15T17:17:21.535Z,1.40
2022-10-15T17:19:49.907Z,1.30
2022-10-15T17:22:18.291Z,1.47
2022-10-15T17:24:46.760Z,1.40
2022-10-15T17:27:15.089Z,1.40
2022-10-15T17:29:43.761Z,1.20
2022-10-15T17:32:12.103Z,1.10
2022-10-15T17:34:41.887Z,1.20
2022-10-15T17:37:10.336Z,0.93
2022-10-15T17:39:38.859Z,1.30
2022-10-15T17:42:07.269Z,1.10
2022-10-15T17:44:35.622Z,1.00
2022-10-15T17:47:04.089Z,1.00
2022-10-15T17:49:32.467Z,1.17
2022-10-15T17:52:02.183Z,1.10
2022-10-15T17:54:30.867Z,1.20
2022-10-15T17:56:59.186Z,1.37
2022-10-15T17:59:27.587Z,1.00
2022-10-15T18:01:59.624Z,1.30
2022-10-15T18:04:29.308Z,1.10
2022-10-15T18:06:58.006Z,1.27
2022-10-15T18:09:28.471Z,1.33
2022-10-15T18:11:57.391Z,1.50
2022-10-15T18:14:25.753Z,1.10
2022-10-15T18:16:54.428Z,1.40
2022-10-15T18:19:22.990Z,1.23
2022-10-15T18:21:51.364Z,1.17
2022-10-15T18:24:22.085Z,1.30
2022-10-15T18:26:52.523Z,1.30
2022-10-15T18:29:22.406Z,1.70
2022-10-15T18:31:56.300Z,1.67
2022-10-15T18:34:26.093Z,1.70
2022-10-15T18:36:54.471Z,1.33
2022-10-15T18:39:23.013Z,1.70
2022-10-15T18:41:52.795Z,1.70
2022-10-15T18:44:23.420Z,1.57
2022-10-15T18:46:52.745Z,1.60
2022-10-15T18:49:21.938Z,1.47
2022-10-15T18:51:52.879Z,1.50
2022-10-15T18:54:22.160Z,1.20
2022-10-15T18:56:52.572Z,1.83
2022-10-15T18:59:21.254Z,1.40
2022-10-15T19:01:50.251Z,1.53
2022-10-15T19:04:23.349Z,1.70
2022-10-15T19:06:53.989Z,2.00
2022-10-15T19:09:24.653Z,2.60
2022-10-15T19:11:55.864Z,2.27
2022-10-15T19:14:25.612Z,1.80
2022-10-15T19:16:54.265Z,1.90
2022-10-15T19:19:26.095Z,1.60
2022-10-15T19:21:55.952Z,1.73
2022-10-15T19:24:24.966Z,1.73
2022-10-15T19:26:54.768Z,1.73
2022-10-15T19:29:23.205Z,1.60
2022-10-15T19:31:53.313Z,1.70
2022-10-15T19:34:22.750Z,1.70
2022-10-15T19:36:51.730Z,1.53
2022-10-15T19:39:22.134Z,1.70
2022-10-15T19:41:51.705Z,1.70
2022-10-15T19:44:25.722Z,1.47
2022-10-15T19:46:55.256Z,1.70
2022-10-15T19:49:24.217Z,2.17
2022-10-15T19:51:53.149Z,1.90
2022-10-15T19:54:21.679Z,1.63
2022-10-15T19:56:50.131Z,1.67
2022-10-15T19:59:18.830Z,1.50
2022-10-15T20:01:48.694Z,1.33
2022-10-15T20:04:17.168Z,1.30
2022-10-15T20:06:45.641Z,2.03
2022-10-15T20:09:14.033Z,2.20
2022-10-15T20:11:44.950Z,2.30
2022-10-15T20:14:13.292Z,1.70
2022-10-15T20:16:41.687Z,1.70
2022-10-15T20:19:12.831Z,1.80
2022-10-15T20:21:41.220Z,2.10
2022-10-15T20:24:09.592Z,2.77
2022-10-15T20:26:37.968Z,2.40
2022-10-15T20:29:06.503Z,2.10
2022-10-15T20:31:35.788Z,1.73
2022-10-15T20:34:04.551Z,1.90
2022-10-15T20:36:34.324Z,1.57
2022-10-15T20:39:02.927Z,1.67
2022-10-15T20:41:31.303Z,2.23
2022-10-15T20:43:59.709Z,2.07
2022-10-15T20:46:31.363Z,2.30
2022-10-15T20:49:06.119Z,2.10
2022-10-15T20:51:41.644Z,1.90
2022-10-15T20:54:11.599Z,1.90
2022-10-15T20:56:40.633Z,1.90
2022-10-15T20:59:09.368Z,1.80
2022-10-15T21:01:37.834Z,1.70
2022-10-15T21:04:06.899Z,1.93
2022-10-15T21:06:35.307Z,1.90
2022-10-15T21:09:05.275Z,1.90
2022-10-15T21:11:33.999Z,2.00
2022-10-15T21:14:02.403Z,2.03
2022-10-15T21:19:00.338Z,2.07
2022-10-15T21:21:29.261Z,1.67
2022-10-15T21:23:59.554Z,2.30
2022-10-15T21:26:29.492Z,2.03
2022-10-15T21:28:59.096Z,2.23
2022-10-15T21:31:28.104Z,2.03
2022-10-15T21:33:57.138Z,2.20
2022-10-15T21:36:27.121Z,2.57
2022-10-15T21:38:57.639Z,2.27
2022-10-15T21:41:27.677Z,2.20
2022-10-15T21:43:58.044Z,2.30
2022-10-15T21:46:26.841Z,2.10
2022-10-15T21:48:55.910Z,2.03
2022-10-15T21:51:26.883Z,2.20
2022-10-15T21:53:56.175Z,2.17
2022-10-15T21:56:24.922Z,2.23
2022-10-15T21:58:55.398Z,2.07
2022-10-15T22:01:27.591Z,2.40
2022-10-15T22:04:01.298Z,2.00
2022-10-15T22:06:30.309Z,2.27
2022-10-15T22:08:59.242Z,2.20
2022-10-15T22:11:29.404Z,2.10
2022-10-15T22:13:59.493Z,2.70
2022-10-15T22:16:29.836Z,2.00
2022-10-15T22:18:58.566Z,2.33
2022-10-15T22:21:29.657Z,2.30
2022-10-15T22:23:59.855Z,2.17
2022-10-15T22:26:30.754Z,2.00
2022-10-15T22:29:01.490Z,2.13
2022-10-15T22:31:31.556Z,2.23
2022-10-15T22:34:00.109Z,2.30
2022-10-15T22:36:30.379Z,2.50
2022-10-15T22:39:02.544Z,2.13
2022-10-15T22:41:32.669Z,2.10
2022-10-15T22:44:01.146Z,2.53
2022-10-15T22:46:32.987Z,2.30
2022-10-15T22:49:02.149Z,2.63
2022-10-15T22:51:30.898Z,2.67
2022-10-15T22:53:59.826Z,2.37
2022-10-15T22:56:29.609Z,2.00
2022-10-15T22:58:58.833Z,2.27
2022-10-15T23:01:29.157Z,2.60
2022-10-15T23:04:02.301Z,2.50
2022-10-15T23:06:31.623Z,2.37
2022-10-15T23:09:00.859Z,2.30
2022-10-15T23:11:30.886Z,1.90
2022-10-15T23:14:03.747Z,2.20
2022-10-15T23:16:34.110Z,2.30
2022-10-15T23:19:06.234Z,2.27
2022-10-15T23:21:38.737Z,2.50
2022-10-15T23:24:07.666Z,2.70
2022-10-15T23:26:36.240Z,2.50
2022-10-15T23:29:06.500Z,2.00
2022-10-15T23:31:37.248Z,2.50
2022-10-15T23:34:07.563Z,2.80
2022-10-15T23:36:35.966Z,2.60
2022-10-15T23:39:06.199Z,2.57
2022-10-15T23:41:34.943Z,2.70
2022-10-15T23:44:03.310Z,2.63
2022-10-15T23:46:31.816Z,2.70
2022-10-15T23:49:00.160Z,2.87
2022-10-15T23:51:31.070Z,2.40
2022-10-15T23:54:01.767Z,2.80
2022-10-15T23:56:31.613Z,2.93
2022-10-15T23:59:01.442Z,2.43
